createdAt,value
2022-10-28T00:01:26.845Z,8.27
2022-10-28T00:03:56.963Z,9.77
2022-10-28T00:06:27.131Z,8.77
2022-10-28T00:08:55.945Z,8.63
2022-10-28T00:11:26.851Z,8.67
2022-10-28T00:13:57.791Z,9.40
2022-10-28T00:16:29.651Z,9.23
2022-10-28T00:18:59.991Z,8.80
2022-10-28T00:21:30.703Z,10.07
2022-10-28T00:23:59.230Z,8.73
2022-10-28T00:26:29.187Z,8.27
2022-10-28T00:29:00.971Z,8.47
2022-10-28T00:31:32.022Z,8.43
2022-10-28T00:34:02.807Z,8.90
2022-10-28T00:36:32.994Z,7.97
2022-10-28T00:39:03.221Z,8.03
2022-10-28T00:41:32.927Z,8.00
2022-10-28T00:44:04.439Z,8.43
2022-10-28T00:46:40.088Z,8.00
2022-10-28T00:49:16.394Z,9.97
2022-10-28T00:51:47.598Z,8.40
2022-10-28T00:54:17.722Z,8.27
2022-10-28T00:56:49.506Z,8.90
2022-10-28T00:59:22.934Z,8.97
2022-10-28T01:01:51.492Z,9.20
2022-10-28T01:04:21.039Z,8.87
2022-10-28T01:06:50.098Z,8.33
2022-10-28T01:09:18.397Z,8.43
2022-10-28T01:12:00.761Z,8.10
2022-10-28T01:14:43.542Z,7.63
2022-10-28T01:17:25.287Z,8.43
2022-10-28T01:20:49.949Z,8.60
2022-10-28T01:23:26.596Z,8.40
2022-10-28T01:26:37.805Z,7.77
2022-10-28T01:29:50.061Z,8.00
2022-10-28T01:32:28.326Z,7.47
2022-10-28T01:35:07.763Z,8.17
2022-10-28T01:37:39.463Z,7.23
2022-10-28T01:40:10.740Z,7.93
2022-10-28T01:42:45.553Z,8.03
2022-10-28T01:45:20.343Z,9.13
2022-10-28T01:47:58.985Z,8.53
2022-10-28T01:50:33.882Z,8.47
2022-10-28T01:53:08.572Z,8.77
2022-10-28T01:55:41.072Z,8.83
2022-10-28T01:58:15.378Z,9.23
2022-10-28T02:00:45.996Z,8.87
2022-10-28T02:03:18.131Z,8.30
2022-10-28T02:05:48.579Z,7.43
2022-10-28T02:09:07.927Z,8.50
2022-10-28T02:11:47.151Z,9.20
2022-10-28T02:14:29.626Z,8.93
2022-10-28T02:17:03.652Z,7.77
2022-10-28T02:19:44.942Z,7.60
2022-10-28T02:22:20.767Z,8.33
2022-10-28T02:24:56.649Z,8.40
2022-10-28T02:27:35.207Z,8.27
2022-10-28T02:30:08.105Z,9.13
2022-10-28T02:32:40.623Z,8.53
2022-10-28T02:35:15.792Z,8.20
2022-10-28T02:37:46.424Z,8.50
2022-10-28T02:40:19.403Z,8.70
2022-10-28T02:42:51.723Z,8.00
2022-10-28T02:45:25.300Z,8.90
2022-10-28T02:47:59.342Z,7.60
2022-10-28T02:50:33.514Z,7.83
2022-10-28T02:53:05.894Z,7.37
2022-10-28T02:55:38.666Z,9.03
2022-10-28T02:58:07.903Z,8.50
2022-10-28T03:00:36.194Z,8.73
2022-10-28T03:03:05.272Z,9.00
2022-10-28T03:05:34.991Z,7.83
2022-10-28T03:08:03.353Z,8.13
2022-10-28T03:10:31.622Z,8.17
2022-10-28T03:12:59.893Z,9.27
2022-10-28T03:15:28.163Z,8.30
2022-10-28T03:17:56.531Z,8.43
2022-10-28T03:20:24.798Z,8.37
2022-10-28T03:22:54.792Z,7.60
2022-10-28T03:25:23.404Z,7.30
2022-10-28T03:27:51.584Z,7.73
2022-10-28T03:30:19.943Z,8.73
2022-10-28T03:32:48.122Z,8.37
2022-10-28T03:35:16.472Z,7.77
2022-10-28T03:37:44.894Z,7.37
2022-10-28T03:40:15.240Z,7.20
2022-10-28T03:42:43.644Z,7.37
2022-10-28T03:45:12.587Z,8.43
2022-10-28T03:47:41.509Z,7.23
2022-10-28T03:50:10.566Z,7.13
2022-10-28T03:52:39.097Z,7.33
2022-10-28T03:55:07.805Z,7.83
2022-10-28T03:57:38.030Z,8.20
2022-10-28T04:00:07.395Z,9.23
2022-10-28T04:02:42.019Z,8.30
2022-10-28T04:05:10.600Z,7.53
2022-10-28T04:07:38.814Z,7.93
2022-10-28T04:10:07.822Z,7.37
2022-10-28T04:12:37.541Z,7.20
2022-10-28T04:15:06.554Z,8.23
2022-10-28T04:17:35.851Z,7.80
2022-10-28T04:20:04.287Z,8.70
2022-10-28T04:22:32.587Z,8.07
2022-10-28T04:25:00.860Z,8.43
2022-10-28T04:27:29.065Z,8.43
2022-10-28T04:29:58.813Z,8.63
2022-10-28T04:32:27.031Z,8.70
2022-10-28T04:34:55.295Z,8.23
2022-10-28T04:37:23.665Z,8.53
2022-10-28T04:39:51.856Z,8.10
2022-10-28T04:42:20.074Z,8.97
2022-10-28T04:44:48.287Z,8.30
2022-10-28T04:47:18.072Z,8.63
2022-10-28T04:49:46.437Z,8.50
2022-10-28T04:52:15.861Z,8.87
2022-10-28T04:54:44.357Z,10.73
2022-10-28T04:57:12.643Z,8.97
2022-10-28T04:59:40.854Z,8.70
2022-10-28T05:02:09.300Z,8.23
2022-10-28T05:04:38.950Z,8.20
2022-10-28T05:07:07.746Z,7.87
2022-10-28T05:09:36.030Z,7.77
2022-10-28T05:12:04.805Z,7.93
2022-10-28T05:14:33.358Z,8.03
2022-10-28T05:17:01.645Z,7.60
2022-10-28T05:19:29.871Z,7.93
2022-10-28T05:21:59.547Z,8.00
2022-10-28T05:24:27.757Z,7.60
2022-10-28T05:26:56.085Z,7.87
2022-10-28T05:29:24.332Z,7.07
2022-10-28T05:31:52.585Z,9.03
2022-10-28T05:34:20.798Z,8.27
2022-10-28T05:36:50.513Z,7.80
2022-10-28T05:39:20.217Z,7.63
2022-10-28T05:41:49.534Z,8.13
2022-10-28T05:44:17.752Z,7.00
2022-10-28T05:46:46.037Z,7.40
2022-10-28T05:49:14.236Z,7.03
2022-10-28T05:51:42.519Z,8.13
2022-10-28T05:54:10.831Z,7.13
2022-10-28T05:56:40.553Z,8.03
2022-10-28T05:59:08.759Z,7.33
2022-10-28T06:01:37.118Z,7.23
2022-10-28T06:04:06.598Z,7.43
2022-10-28T06:06:34.940Z,7.20
2022-10-28T06:09:03.245Z,7.00
2022-10-28T06:11:30.074Z,6.70
2022-10-28T06:13:59.783Z,7.53
2022-10-28T06:16:28.119Z,7.80
2022-10-28T06:18:56.992Z,7.93
2022-10-28T06:21:25.203Z,7.80
2022-10-28T06:23:53.451Z,7.43
2022-10-28T06:26:21.706Z,8.13
2022-10-28T06:28:49.983Z,8.10
2022-10-28T06:31:19.665Z,7.97
2022-10-28T06:33:48.899Z,8.03
2022-10-28T06:36:17.185Z,7.57
2022-10-28T06:38:46.106Z,8.80
2022-10-28T06:41:14.416Z,8.50
2022-10-28T06:43:42.655Z,8.07
2022-10-28T06:46:11.060Z,7.10
2022-10-28T06:48:42.234Z,8.27
2022-10-28T06:51:10.561Z,8.00
2022-10-28T06:53:38.808Z,7.97
2022-10-28T06:56:07.927Z,7.43
2022-10-28T06:58:36.396Z,8.37
2022-10-28T07:01:05.761Z,8.67
2022-10-28T07:03:34.384Z,7.83
2022-10-28T07:06:04.125Z,8.10
2022-10-28T07:08:32.819Z,8.00
2022-10-28T07:11:02.641Z,8.73
2022-10-28T07:13:31.279Z,9.13
2022-10-28T07:16:01.363Z,9.37
2022-10-28T07:18:31.148Z,8.10
2022-10-28T07:21:00.376Z,7.97
2022-10-28T07:23:31.718Z,8.43
2022-10-28T07:26:00.107Z,9.33
2022-10-28T07:28:29.381Z,7.80
2022-10-28T07:31:01.995Z,7.27
2022-10-28T07:33:30.576Z,6.93
2022-10-28T07:35:58.736Z,8.07
2022-10-28T07:38:27.672Z,7.70
2022-10-28T07:40:57.367Z,7.07
2022-10-28T07:43:25.705Z,6.40
2022-10-28T07:45:57.640Z,7.00
2022-10-28T07:48:25.956Z,6.20
2022-10-28T07:50:54.197Z,6.40
2022-10-28T07:53:24.855Z,6.47
2022-10-28T07:55:58.728Z,6.73
2022-10-28T07:58:27.152Z,6.10
2022-10-28T08:00:55.688Z,7.03
2022-10-28T08:03:31.100Z,6.87
2022-10-28T08:06:04.694Z,6.20
2022-10-28T08:08:32.852Z,6.47
2022-10-28T08:11:10.204Z,6.93
2022-10-28T08:13:40.142Z,6.97
2022-10-28T08:16:09.663Z,7.07
2022-10-28T08:18:38.778Z,7.23
2022-10-28T08:21:09.468Z,6.93
2022-10-28T08:23:38.843Z,6.80
2022-10-28T08:26:08.824Z,7.00
2022-10-28T08:28:37.022Z,6.30
2022-10-28T08:31:09.577Z,6.30
2022-10-28T08:33:39.176Z,7.67
2022-10-28T08:36:08.495Z,8.57
2022-10-28T08:38:37.520Z,7.13
2022-10-28T08:41:23.039Z,7.07
2022-10-28T08:44:05.380Z,6.23
2022-10-28T08:46:48.702Z,6.70
2022-10-28T08:49:21.011Z,7.20
2022-10-28T08:51:55.138Z,6.57
2022-10-28T08:54:28.708Z,7.07
2022-10-28T08:57:01.038Z,6.80
2022-10-28T08:59:35.062Z,6.43
2022-10-28T09:02:13.872Z,6.07
2022-10-28T09:04:44.997Z,7.00
2022-10-28T09:07:18.665Z,8.53
2022-10-28T09:09:47.523Z,8.43
2022-10-28T09:12:29.892Z,7.30
2022-10-28T09:15:14.893Z,8.70
2022-10-28T09:17:53.418Z,8.20
2022-10-28T09:20:28.451Z,9.13
2022-10-28T09:22:58.758Z,7.27
2022-10-28T09:25:34.541Z,7.30
2022-10-28T09:28:22.770Z,7.43
2022-10-28T09:30:59.302Z,7.63
2022-10-28T09:33:45.098Z,7.23
2022-10-28T09:36:18.855Z,7.57
2022-10-28T09:38:47.257Z,6.80
2022-10-28T09:41:20.917Z,7.03
2022-10-28T09:43:54.581Z,7.57
2022-10-28T09:46:25.230Z,7.77
2022-10-28T09:48:57.741Z,7.37
2022-10-28T09:51:33.455Z,7.80
2022-10-28T09:54:02.570Z,7.70
2022-10-28T09:56:32.033Z,7.77
2022-10-28T09:59:03.869Z,8.33
2022-10-28T10:01:34.527Z,7.00
2022-10-28T10:04:03.238Z,7.80
2022-10-28T10:06:36.683Z,7.60
2022-10-28T10:09:05.568Z,7.87
2022-10-28T10:11:38.363Z,8.20
2022-10-28T10:14:11.269Z,8.03
2022-10-28T10:16:43.859Z,8.60
2022-10-28T10:19:13.083Z,9.13
2022-10-28T10:21:43.701Z,9.40
2022-10-28T10:24:33.202Z,9.63
2022-10-28T10:27:04.111Z,9.87
2022-10-28T10:29:35.862Z,10.00
2022-10-28T10:32:16.577Z,9.60
2022-10-28T10:34:47.657Z,8.57
2022-10-28T10:37:21.398Z,8.80
2022-10-28T10:40:02.661Z,8.93
2022-10-28T10:42:30.908Z,9.18
2022-10-28T10:45:04.350Z,9.17
2022-10-28T10:47:32.661Z,10.10
2022-10-28T10:50:22.216Z,8.60
2022-10-28T10:52:56.980Z,8.60
2022-10-28T10:55:50.457Z,9.43
2022-10-28T10:58:21.257Z,8.63
2022-10-28T11:00:52.908Z,7.90
2022-10-28T11:03:27.147Z,8.57
2022-10-28T11:06:18.275Z,8.75
2022-10-28T11:08:46.077Z,9.00
2022-10-28T11:11:16.353Z,8.00
2022-10-28T11:13:46.224Z,8.70
2022-10-28T11:16:23.734Z,9.02
2022-10-28T11:18:53.711Z,8.88
2022-10-28T11:21:48.065Z,8.70
2022-10-28T11:24:53.217Z,8.13
2022-10-28T11:27:35.616Z,9.10
2022-10-28T11:30:04.589Z,8.95
2022-10-28T11:33:01.445Z,8.52
2022-10-28T11:35:46.696Z,8.50
2022-10-28T11:38:28.555Z,9.07
2022-10-28T11:41:15.124Z,8.60
2022-10-28T11:43:54.830Z,9.20
2022-10-28T11:46:36.348Z,8.38
2022-10-28T11:49:37.381Z,9.52
2022-10-28T11:52:19.042Z,9.75
2022-10-28T11:55:04.061Z,8.07
2022-10-28T11:57:45.506Z,8.02
2022-10-28T12:00:39.862Z,7.35
2022-10-28T12:03:29.112Z,8.05
2022-10-28T12:06:11.004Z,8.70
2022-10-28T12:08:53.113Z,8.43
2022-10-28T12:11:30.093Z,7.82
2022-10-28T12:14:06.718Z,7.57
2022-10-28T12:16:43.723Z,7.28
2022-10-28T12:19:17.537Z,7.90
2022-10-28T12:22:01.299Z,7.82
2022-10-28T12:24:35.268Z,8.43
2022-10-28T12:27:15.374Z,8.32
2022-10-28T12:29:51.082Z,7.70
2022-10-28T12:32:23.892Z,6.82
2022-10-28T12:34:59.323Z,7.65
2022-10-28T12:37:35.252Z,6.00
2022-10-28T12:40:09.135Z,6.35
2022-10-28T12:42:41.278Z,6.28
2022-10-28T12:45:15.153Z,7.18
2022-10-28T12:47:49.768Z,6.43
2022-10-28T12:50:26.710Z,6.72
2022-10-28T12:53:17.989Z,6.57
2022-10-28T12:55:51.725Z,6.55
2022-10-28T12:58:25.888Z,6.20
2022-10-28T13:00:57.789Z,7.47
2022-10-28T13:03:26.183Z,6.95
2022-10-28T13:06:07.357Z,5.88
2022-10-28T13:09:06.847Z,6.75
2022-10-28T13:12:19.757Z,6.32
2022-10-28T13:15:15.730Z,6.82
2022-10-28T13:17:53.560Z,6.90
2022-10-28T13:20:39.649Z,6.75
2022-10-28T13:23:27.794Z,7.00
2022-10-28T13:26:06.501Z,6.20
2022-10-28T13:28:37.013Z,6.70
2022-10-28T13:31:08.543Z,6.60
2022-10-28T13:33:39.041Z,6.45
2022-10-28T13:36:16.746Z,5.70
2022-10-28T13:38:51.322Z,6.50
2022-10-28T13:41:39.125Z,6.60
2022-10-28T13:44:31.153Z,6.85
2022-10-28T13:47:28.066Z,5.55
2022-10-28T13:50:40.632Z,6.72
2022-10-28T13:53:53.020Z,6.97
2022-10-28T13:56:29.088Z,6.40
2022-10-28T13:59:01.188Z,6.93
2022-10-28T14:02:07.327Z,7.38
2022-10-28T14:04:44.098Z,7.53
2022-10-28T14:07:22.753Z,6.50
2022-10-28T14:09:56.990Z,6.28
2022-10-28T14:12:31.246Z,6.53
2022-10-28T14:15:18.875Z,6.57
2022-10-28T14:17:51.473Z,7.13
2022-10-28T14:20:30.832Z,6.88
2022-10-28T14:23:00.032Z,6.75
2022-10-28T14:26:05.583Z,7.35
2022-10-28T14:28:53.417Z,6.28
2022-10-28T14:31:40.337Z,7.40
2022-10-28T14:34:45.104Z,6.85
2022-10-28T14:37:32.489Z,7.38
2022-10-28T14:40:17.617Z,7.20
2022-10-28T14:43:08.245Z,6.85
2022-10-28T14:45:46.353Z,8.02
2022-10-28T14:48:32.361Z,6.15
2022-10-28T14:51:03.507Z,6.63
2022-10-28T14:53:35.395Z,7.88
2022-10-28T14:56:07.976Z,7.05
2022-10-28T14:58:39.454Z,7.20
2022-10-28T15:01:23.003Z,7.65
2022-10-28T15:03:56.998Z,6.63
2022-10-28T15:06:46.816Z,7.32
2022-10-28T15:09:20.008Z,6.60
2022-10-28T15:11:51.438Z,5.95
2022-10-28T15:14:32.431Z,6.88
2022-10-28T15:17:05.349Z,6.75
2022-10-28T15:19:36.835Z,7.03
2022-10-28T15:22:08.479Z,6.47
2022-10-28T15:24:36.781Z,7.03
2022-10-28T15:27:05.595Z,7.03
2022-10-28T15:29:33.982Z,7.57
2022-10-28T15:32:12.440Z,7.25
2022-10-28T15:34:43.160Z,6.25
2022-10-28T15:37:18.988Z,7.35
2022-10-28T15:39:48.399Z,7.22
2022-10-28T15:42:32.944Z,7.45
2022-10-28T15:45:01.396Z,6.70
2022-10-28T15:47:33.177Z,7.72
2022-10-28T15:50:07.090Z,7.47
2022-10-28T15:52:37.700Z,7.00
2022-10-28T15:56:07.014Z,7.43
2022-10-28T15:58:36.761Z,7.55
2022-10-28T16:01:09.514Z,7.90
2022-10-28T16:03:46.317Z,7.70
2022-10-28T16:06:26.026Z,8.52
2022-10-28T16:09:07.272Z,8.15
2022-10-28T16:11:39.466Z,7.78
2022-10-28T16:14:24.678Z,7.90
2022-10-28T16:16:54.086Z,7.80
2022-10-28T16:19:29.827Z,7.78
2022-10-28T16:21:59.566Z,7.45
2022-10-28T16:24:27.785Z,7.22
2022-10-28T16:26:56.381Z,7.40
2022-10-28T16:29:24.590Z,8.27
2022-10-28T16:31:53.553Z,8.35
2022-10-28T16:34:21.765Z,8.07
2022-10-28T16:36:49.980Z,7.87
2022-10-28T16:39:19.661Z,7.27
2022-10-28T16:41:48.327Z,8.33
2022-10-28T16:44:19.383Z,7.53
2022-10-28T16:46:47.643Z,8.13
2022-10-28T16:49:15.875Z,7.30
2022-10-28T16:51:45.686Z,7.80
2022-10-28T16:54:13.988Z,7.93
2022-10-28T16:56:43.637Z,8.43
2022-10-28T16:59:11.977Z,8.53
2022-10-28T17:01:40.363Z,7.83
2022-10-28T17:04:10.325Z,8.03
2022-10-28T17:06:38.573Z,8.43
2022-10-28T17:09:06.824Z,7.90
2022-10-28T17:11:35.159Z,8.17
2022-10-28T17:14:04.798Z,8.03
2022-10-28T17:16:33.091Z,8.50
2022-10-28T17:19:01.465Z,7.80
2022-10-28T17:21:29.769Z,7.90
2022-10-28T17:23:58.043Z,8.00
2022-10-28T17:26:27.246Z,8.60
2022-10-28T17:28:55.546Z,8.50
2022-10-28T17:31:25.758Z,8.03
2022-10-28T17:33:55.685Z,8.00
2022-10-28T17:36:25.095Z,8.00
2022-10-28T17:38:53.385Z,7.50
2022-10-28T17:41:22.660Z,8.10
2022-10-28T17:43:54.263Z,8.33
2022-10-28T17:46:24.264Z,8.17
2022-10-28T17:48:52.463Z,7.50
2022-10-28T17:51:22.360Z,7.77
2022-10-28T17:53:54.548Z,8.40
2022-10-28T17:56:22.997Z,8.57
2022-10-28T17:58:53.867Z,8.40
2022-10-28T18:01:22.423Z,8.13
2022-10-28T18:03:52.320Z,7.63
2022-10-28T18:06:21.866Z,8.57
2022-10-28T18:11:25.465Z,9.20
2022-10-28T18:13:56.408Z,8.80
2022-10-28T18:16:27.983Z,8.33
2022-10-28T18:18:59.344Z,9.47
2022-10-28T18:21:27.646Z,9.37
2022-10-28T18:24:03.786Z,8.57
2022-10-28T18:26:33.198Z,8.13
2022-10-28T18:29:04.059Z,7.53
2022-10-28T18:31:33.699Z,8.90
2022-10-28T18:34:03.865Z,8.90
2022-10-28T18:36:35.736Z,8.30
2022-10-28T18:39:05.509Z,8.93
2022-10-28T18:41:36.192Z,7.23
2022-10-28T18:44:05.910Z,8.30
2022-10-28T18:46:37.675Z,8.13
2022-10-28T18:49:07.698Z,8.27
2022-10-28T18:51:36.181Z,8.47
2022-10-28T18:54:05.350Z,8.63
2022-10-28T18:56:34.344Z,7.60
2022-10-28T18:59:05.438Z,8.33
2022-10-28T19:01:34.913Z,8.27
2022-10-28T19:04:05.470Z,8.27
2022-10-28T19:06:35.347Z,8.53
2022-10-28T19:09:05.637Z,7.97
2022-10-28T19:11:35.246Z,8.53
2022-10-28T19:14:05.381Z,8.67
2022-10-28T19:16:34.557Z,7.83
2022-10-28T19:19:05.010Z,8.27
2022-10-28T19:21:34.985Z,8.37
2022-10-28T19:24:03.613Z,8.10
2022-10-28T19:26:33.697Z,8.93
2022-10-28T19:29:01.943Z,8.77
2022-10-28T19:31:30.916Z,8.30
2022-10-28T19:33:59.199Z,8.03
2022-10-28T19:36:28.744Z,8.07
2022-10-28T19:38:59.348Z,8.27
2022-10-28T19:41:29.810Z,8.77
2022-10-28T19:43:59.611Z,8.00
2022-10-28T19:46:29.140Z,8.73
2022-10-28T19:48:59.076Z,8.97
2022-10-28T19:51:29.024Z,8.87
2022-10-28T19:54:00.120Z,8.03
2022-10-28T19:56:29.764Z,8.40
2022-10-28T19:59:00.056Z,7.97
2022-10-28T20:01:30.412Z,8.07
2022-10-28T20:03:59.011Z,8.57
2022-10-28T20:06:28.676Z,9.20
2022-10-28T20:08:59.491Z,8.53
2022-10-28T20:11:30.072Z,8.70
2022-10-28T20:14:00.987Z,8.50
2022-10-28T20:16:30.047Z,8.73
2022-10-28T20:18:58.952Z,8.27
2022-10-28T20:21:28.677Z,7.67
2022-10-28T20:23:58.227Z,7.83
2022-10-28T20:26:29.273Z,8.60
2022-10-28T20:28:58.534Z,7.97
2022-10-28T20:31:29.091Z,8.43
2022-10-28T20:34:00.706Z,8.23
2022-10-28T20:36:30.783Z,8.33
2022-10-28T20:39:00.649Z,7.93
2022-10-28T20:41:34.937Z,7.83
2022-10-28T20:44:04.624Z,8.17
2022-10-28T20:46:34.304Z,8.00
2022-10-28T20:49:03.021Z,8.40
2022-10-28T20:51:32.708Z,8.93
2022-10-28T20:54:02.203Z,8.27
2022-10-28T20:56:33.845Z,9.03
2022-10-28T20:59:02.341Z,9.53
2022-10-28T21:01:32.279Z,8.07
2022-10-28T21:04:02.723Z,8.13
2022-10-28T21:06:31.697Z,8.03
2022-10-28T21:09:00.623Z,7.60
2022-10-28T21:11:31.125Z,7.03
2022-10-28T21:14:01.154Z,7.77
2022-10-28T21:16:30.669Z,7.37
2022-10-28T21:18:59.988Z,7.30
2022-10-28T21:21:29.413Z,8.70
2022-10-28T21:23:57.830Z,7.93
2022-10-28T21:26:27.177Z,8.77
2022-10-28T21:28:57.488Z,9.47
2022-10-28T21:31:25.923Z,7.73
2022-10-28T21:33:54.479Z,7.30
2022-10-28T21:36:23.406Z,8.07
2022-10-28T21:38:55.152Z,7.20
2022-10-28T21:41:24.135Z,7.83
2022-10-28T21:43:54.282Z,7.63
2022-10-28T21:46:25.533Z,7.47
2022-10-28T21:48:53.924Z,7.47
2022-10-28T21:51:22.188Z,7.53
2022-10-28T21:53:50.493Z,7.77
2022-10-28T21:56:20.838Z,8.17
2022-10-28T21:58:50.844Z,8.10
2022-10-28T22:01:29.105Z,8.00
2022-10-28T22:03:59.563Z,7.90
2022-10-28T22:06:27.831Z,8.23
2022-10-28T22:08:56.802Z,7.57
2022-10-28T22:11:25.451Z,8.00
2022-10-28T22:13:58.504Z,8.43
2022-10-28T22:16:28.270Z,7.70
2022-10-28T22:18:56.954Z,7.97
2022-10-28T22:21:28.577Z,8.13
2022-10-28T22:23:57.073Z,7.67
2022-10-28T22:26:26.737Z,7.90
2022-10-28T22:28:55.290Z,7.47
2022-10-28T22:31:25.942Z,8.77
2022-10-28T22:33:55.427Z,7.27
2022-10-28T22:36:26.793Z,7.07
2022-10-28T22:38:55.268Z,6.90
2022-10-28T22:41:24.909Z,7.73
2022-10-28T22:43:54.544Z,7.70
2022-10-28T22:46:23.598Z,8.23
2022-10-28T22:48:51.862Z,7.67
2022-10-28T22:51:20.462Z,8.93
2022-10-28T22:53:50.569Z,7.27
2022-10-28T22:56:21.367Z,8.17
2022-10-28T22:58:50.086Z,7.87
2022-10-28T23:01:21.023Z,7.67
2022-10-28T23:03:51.377Z,6.90
2022-10-28T23:06:23.634Z,7.57
2022-10-28T23:08:53.549Z,7.90
2022-10-28T23:11:22.919Z,8.10
2022-10-28T23:13:53.601Z,8.17
2022-10-28T23:16:23.206Z,7.67
2022-10-28T23:18:53.004Z,7.70
2022-10-28T23:21:23.041Z,7.37
2022-10-28T23:23:55.648Z,7.47
2022-10-28T23:26:24.718Z,8.23
2022-10-28T23:28:54.574Z,8.40
2022-10-28T23:31:25.082Z,8.03
2022-10-28T23:33:54.972Z,7.37
2022-10-28T23:36:23.483Z,7.97
2022-10-28T23:38:52.557Z,7.87
2022-10-28T23:41:22.302Z,8.60
2022-10-28T23:43:50.678Z,7.70
2022-10-28T23:46:20.575Z,7.13
2022-10-28T23:48:48.858Z,7.87
2022-10-28T23:51:19.373Z,7.53
2022-10-28T23:53:47.630Z,7.20
2022-10-28T23:56:16.934Z,7.60
2022-10-28T23:58:46.640Z,7.37
